Time;durP1;ratioP1;P1;durP2;ratioP2;P2;SDS_P1;SDS_P2;PMS_P1;PMS_P2;Temp;Humidity;BMP_temperature;BMP_pressure;BME280_temperature;BME280_humidity;BME280_pressure;Samples;Min_cycle;Max_cycle;Signal;HPM_P1;HPM_P2
2021/12/24 00:00:42;;;;;;;28.07;10.47;;;;;;;-4.32;62.66;100676.41;126290;1099;104146;-81
2021/12/24 00:03:13;;;;;;;28.63;10.43;;;;;;;-4.30;63.27;100656.06;126330;1099;104144;-81
2021/12/24 00:05:43;;;;;;;28.47;11.00;;;;;;;-4.26;63.25;100648.82;126354;1099;104149;-81
2021/12/24 00:08:12;;;;;;;28.23;11.57;;;;;;;-4.26;63.05;100641.13;126332;1099;104426;-81
2021/12/24 00:10:43;;;;;;;28.03;10.63;;;;;;;-4.24;62.99;100641.28;126241;1099;104229;-81
2021/12/24 00:13:12;;;;;;;26.83;10.17;;;;;;;-4.25;63.08;100635.27;126292;1098;101826;-81
2021/12/24 00:15:53;;;;;;;28.00;10.73;;;;;;;-4.23;62.96;100628.61;126308;1099;104175;-81
2021/12/24 00:18:36;;;;;;;24.60;10.03;;;;;;;-4.21;62.71;100626.20;126359;1099;104265;-81
2021/12/24 00:35:11;;;;;;;25.20;10.27;;;;;;;-4.10;62.93;100599.93;126311;1099;104338;-81
2021/12/24 00:37:42;;;;;;;26.63;10.80;;;;;;;-4.08;62.75;100589.82;126115;1099;104194;-82
2021/12/24 00:40:18;;;;;;;25.50;11.07;;;;;;;-4.08;62.84;100583.06;126070;1099;104158;-82
2021/12/24 00:42:50;;;;;;;23.00;9.17;;;;;;;-4.07;63.04;100579.72;126116;1099;111999;-82
2021/12/24 00:45:21;;;;;;;25.33;9.77;;;;;;;-4.05;63.15;100565.41;126122;1099;104184;-81
2021/12/24 00:47:51;;;;;;;24.70;10.03;;;;;;;-4.02;63.39;100555.45;126128;1099;104137;-82
2021/12/24 00:50:25;;;;;;;26.67;10.30;;;;;;;-3.99;62.98;100547.12;126103;1099;104226;-82
2021/12/24 00:53:01;;;;;;;24.70;9.97;;;;;;;-3.98;63.17;100549.83;126229;1099;105413;-81
2021/12/24 00:55:32;;;;;;;24.03;9.80;;;;;;;-3.97;63.08;100538.83;126287;1099;104204;-81
2021/12/24 00:58:07;;;;;;;23.60;9.43;;;;;;;-3.95;63.12;100515.00;126276;1099;104213;-81
2021/12/24 01:00:38;;;;;;;25.20;9.70;;;;;;;-3.93;63.61;100508.34;126335;1099;104283;-81
2021/12/24 01:03:10;;;;;;;26.47;10.10;;;;;;;-3.92;62.90;100492.22;126207;1099;104256;-81
2021/12/24 01:05:41;;;;;;;24.73;9.27;;;;;;;-3.92;62.91;100470.03;126298;1099;104172;-81
2021/12/24 01:08:12;;;;;;;27.67;9.83;;;;;;;-3.91;63.67;100458.11;126307;1099;104149;-81
2021/12/24 01:10:44;;;;;;;24.47;8.93;;;;;;;-3.91;62.96;100451.34;126360;1099;104147;-81
2021/12/24 01:13:17;;;;;;;24.83;9.77;;;;;;;-3.89;63.27;100448.92;126301;1099;104216;-81
2021/12/24 01:15:54;;;;;;;25.77;10.03;;;;;;;-3.89;63.74;100433.53;126311;1099;104300;-81
2021/12/24 01:18:33;;;;;;;24.97;10.00;;;;;;;-3.89;63.25;100433.53;126362;1099;104150;-81
2021/12/24 01:21:17;;;;;;;22.53;9.43;;;;;;;-3.88;63.17;100420.86;126329;1099;104159;-80
2021/12/24 01:23:50;;;;;;;23.23;8.73;;;;;;;-3.87;63.65;100404.69;126278;1097;104345;-80
2021/12/24 01:26:24;;;;;;;28.80;10.27;;;;;;;-3.86;63.63;100398.81;125380;1099;104149;-81
2021/12/24 01:29:08;;;;;;;23.90;9.33;;;;;;;-3.84;63.17;100391.27;126283;1099;104217;-80
2021/12/24 01:42:48;;;;;;;27.07;10.27;;;;;;;-3.79;64.12;100359.23;126198;1099;104242;-81
2021/12/24 01:45:25;;;;;;;22.20;9.53;;;;;;;-3.79;63.88;100348.98;126293;1099;104207;-81
2021/12/24 01:47:56;;;;;;;22.97;9.50;;;;;;;-3.78;63.18;100332.84;126300;1099;104143;-81
2021/12/24 01:50:29;;;;;;;24.60;9.67;;;;;;;-3.78;63.66;100343.10;126280;1099;104335;-81
2021/12/24 01:53:03;;;;;;;24.00;9.50;;;;;;;-3.78;63.97;100332.84;125429;1099;104229;-81
2021/12/24 01:55:35;;;;;;;26.33;10.07;;;;;;;-3.76;63.76;100339.00;126257;1099;104328;-81
2021/12/24 01:58:04;;;;;;;24.40;9.67;;;;;;;-3.77;63.71;100339.78;126279;1099;104290;-81
2021/12/24 02:00:36;;;;;;;25.50;10.43;;;;;;;-3.77;63.45;100332.09;125346;1099;104155;-81
2021/12/24 02:03:05;;;;;;;25.77;10.90;;;;;;;-3.77;63.63;100324.40;125321;1102;104133;-81
2021/12/24 02:05:34;;;;;;;26.27;10.50;;;;;;;-3.78;64.14;100325.16;125332;1099;104155;-80
2021/12/24 02:08:06;;;;;;;23.90;9.57;;;;;;;-3.75;63.98;100319.41;125289;1102;104178;-81
2021/12/24 02:10:39;;;;;;;24.23;9.17;;;;;;;-3.75;64.18;100317.73;125336;1099;104482;-81
2021/12/24 02:13:13;;;;;;;27.73;9.90;;;;;;;-3.75;64.56;100304.91;125295;1099;104173;-80
2021/12/24 02:16:00;;;;;;;27.13;11.47;;;;;;;-3.75;64.89;100299.78;125350;1102;104303;-81
2021/12/24 02:28:14;;;;;;;29.50;10.77;;;;;;;-3.73;64.89;100293.11;125350;1099;104373;-81
2021/12/24 02:29:50;;;;;;;27.13;11.23;;;;;;;-3.68;65.19;100250.81;125328;1102;104155;-81
2021/12/24 02:32:19;;;;;;;27.87;12.50;;;;;;;-3.68;65.05;100243.13;125360;1102;104325;-81
2021/12/24 02:34:49;;;;;;;31.00;12.80;;;;;;;-3.68;65.22;100230.30;125335;1102;104229;-81
2021/12/24 02:37:18;;;;;;;31.27;13.20;;;;;;;-3.67;65.58;100234.67;125312;1102;104162;-81
2021/12/24 02:39:47;;;;;;;26.00;10.93;;;;;;;-3.66;65.76;100231.36;125329;1102;104146;-81
2021/12/24 02:42:20;;;;;;;28.47;12.07;;;;;;;-3.65;65.17;100229.68;125297;1102;104389;-80
2021/12/24 02:44:52;;;;;;;32.40;12.97;;;;;;;-3.65;65.50;100230.56;125304;1101;105477;-81
2021/12/24 02:47:44;;;;;;;29.63;12.60;;;;;;;-3.62;65.73;100224.82;125330;1099;104137;-81
2021/12/24 02:55:57;;;;;;;31.77;14.10;;;;;;;-3.56;66.19;100211.64;125300;1102;104262;-81
2021/12/24 02:58:26;;;;;;;30.20;13.63;;;;;;;-3.56;65.55;100203.95;125340;1100;104325;-81
2021/12/24 03:00:54;;;;;;;35.70;14.20;;;;;;;-3.55;65.47;100198.95;126276;1099;104271;-81
2021/12/24 03:03:23;;;;;;;36.60;14.07;;;;;;;-3.54;65.40;100194.70;126370;1098;104149;-81
2021/12/24 03:05:53;;;;;;;31.97;14.27;;;;;;;-3.55;65.48;100180.99;126304;1099;104153;-81
2021/12/24 03:08:21;;;;;;;34.37;14.33;;;;;;;-3.53;65.90;100176.88;126295;1099;104168;-81
2021/12/24 03:10:52;;;;;;;32.17;14.93;;;;;;;-3.53;65.57;100183.69;126355;1099;104271;-81
2021/12/24 03:13:21;;;;;;;31.80;13.63;;;;;;;-3.51;66.48;100164.19;126300;1097;104172;-81
2021/12/24 03:15:51;;;;;;;32.07;14.07;;;;;;;-3.50;65.29;100166.00;126231;1099;104143;-81
2021/12/24 03:18:26;;;;;;;31.03;13.73;;;;;;;-3.48;65.92;100162.78;126243;1099;104146;-81
2021/12/24 03:21:04;;;;;;;;;;;;;;;-3.47;67.20;100153.44;126372;1099;104275;-80
2021/12/24 03:23:37;;;;;;;32.53;14.67;;;;;;;-3.47;66.47;100149.19;126283;1099;104149;-81
2021/12/24 03:26:10;;;;;;;34.40;14.13;;;;;;;-3.47;66.39;100148.30;126223;1099;104204;-81
2021/12/24 03:28:42;;;;;;;30.97;14.20;;;;;;;-3.49;65.89;100143.05;126295;1099;104566;-81
2021/12/24 03:31:13;;;;;;;33.43;15.07;;;;;;;-3.47;65.71;100145.73;126320;1099;104166;-81
2021/12/24 03:33:48;;;;;;;32.50;13.50;;;;;;;-3.47;67.15;100138.93;126273;1099;104195;-81
2021/12/24 03:36:27;;;;;;;34.90;14.17;;;;;;;-3.46;66.20;100127.91;126278;1099;104435;-81
2021/12/24 03:38:59;;;;;;;32.97;14.67;;;;;;;-3.45;66.48;100116.86;126291;1099;104780;-81
2021/12/24 03:41:33;;;;;;;34.63;15.77;;;;;;;-3.46;66.81;100114.16;126339;1099;104194;-81
2021/12/24 03:44:02;;;;;;;33.40;15.40;;;;;;;-3.46;67.44;100104.83;126260;1099;104208;-81
2021/12/24 03:46:39;;;;;;;34.23;15.07;;;;;;;-3.45;66.69;100096.34;126013;1099;104457;-81
2021/12/24 03:49:17;;;;;;;28.63;13.40;;;;;;;-3.44;66.99;100097.27;125452;1099;104437;-81
2021/12/24 03:51:53;;;;;;;35.43;15.73;;;;;;;-3.44;66.14;100097.27;125424;1099;104210;-80
2021/12/24 03:57:25;;;;;;;31.37;14.77;;;;;;;-3.42;65.93;100088.02;125259;1101;111703;-80
2021/12/24 04:00:16;;;;;;;35.63;15.87;;;;;;;-3.39;66.24;100080.58;125251;1102;104331;-81
2021/12/24 04:02:46;;;;;;;36.63;15.70;;;;;;;-3.36;66.33;100083.40;125332;1102;104294;-81
2021/12/24 04:05:33;;;;;;;36.53;15.73;;;;;;;-3.35;66.44;100071.45;125223;1102;104297;-81
2021/12/24 04:08:11;;;;;;;34.53;16.03;;;;;;;-3.34;66.41;100065.56;125229;1102;104191;-82
2021/12/24 04:11:00;;;;;;;35.40;16.67;;;;;;;-3.33;67.31;100065.70;124997;1102;104344;-82
2021/12/24 04:13:36;;;;;;;40.07;17.07;;;;;;;-3.30;66.38;100059.94;125014;1102;104220;-82
2021/12/24 04:16:06;;;;;;;35.43;15.17;;;;;;;-3.30;66.71;100049.67;125154;1103;104242;-81
2021/12/24 04:18:46;;;;;;;36.70;16.85;;;;;;;-3.29;67.00;100039.53;125123;1102;104144;-82
2021/12/24 04:26:49;;;;;;;32.93;15.63;;;;;;;-3.23;66.25;100020.27;125199;1102;104156;-81
2021/12/24 04:29:18;;;;;;;37.90;16.30;;;;;;;-3.21;66.32;100008.45;125962;1099;104207;-81
2021/12/24 04:31:54;;;;;;;34.03;15.50;;;;;;;-3.20;66.88;100003.45;125292;1102;104284;-81
2021/12/24 04:34:47;;;;;;;35.70;16.00;;;;;;;-3.19;66.49;99991.53;125330;1099;104159;-81
2021/12/24 04:51:21;;;;;;;31.53;13.83;;;;;;;-3.12;66.22;99984.43;125321;1101;104313;-81
2021/12/24 05:02:39;;;;;;;39.43;18.00;;;;;;;-3.11;66.50;99980.22;125221;1099;104285;-81
2021/12/24 05:05:18;;;;;;;;;;;;;;;-3.10;66.33;99980.34;125233;1099;104137;-81
2021/12/24 05:08:15;;;;;;;34.30;16.43;;;;;;;-3.09;66.61;99978.66;125138;1102;105754;-82
2021/12/24 05:10:44;;;;;;;36.90;17.10;;;;;;;-3.10;66.32;99972.64;125217;1102;104701;-81
2021/12/24 05:13:16;;;;;;;39.53;18.17;;;;;;;-3.08;66.90;99971.08;125185;1102;104203;-81
2021/12/24 05:22:36;;;;;;;37.75;17.05;;;;;;;-3.02;66.79;99951.80;125135;1102;104358;-82
2021/12/24 05:25:12;;;;;;;37.67;17.57;;;;;;;-3.01;67.20;99945.91;125953;1098;104313;-81
2021/12/24 05:27:40;;;;;;;39.13;17.70;;;;;;;-3.01;66.76;99943.34;126021;1099;104210;-82
2021/12/24 05:30:11;;;;;;;39.87;18.50;;;;;;;-3.00;66.88;99935.77;126012;1099;104158;-81
2021/12/24 05:32:39;;;;;;;38.90;18.07;;;;;;;-3.00;66.67;99935.77;126050;1099;104152;-81
2021/12/24 05:35:09;;;;;;;41.77;18.43;;;;;;;-3.00;67.47;99932.31;125193;1102;104159;-81
2021/12/24 05:37:41;;;;;;;41.10;19.17;;;;;;;-3.00;66.79;99930.63;125233;1099;104300;-81
2021/12/24 05:40:13;;;;;;;42.10;18.53;;;;;;;-2.99;67.71;99934.08;125165;1102;107092;-81
2021/12/24 05:42:43;;;;;;;42.80;19.00;;;;;;;-2.98;66.85;99929.07;125258;1099;104213;-81
2021/12/24 05:45:12;;;;;;;38.70;18.87;;;;;;;-2.97;66.90;99917.16;125293;1102;104303;-81
2021/12/24 05:48:01;;;;;;;41.47;19.03;;;;;;;-2.97;67.46;99922.28;125186;1099;104338;-81
2021/12/24 05:50:32;;;;;;;42.13;20.07;;;;;;;-2.97;67.36;99925.74;125170;1102;104159;-81
2021/12/24 05:53:25;;;;;;;37.60;17.40;;;;;;;-2.93;67.45;99932.92;125186;1102;104224;-80
2021/12/24 05:56:07;;;;;;;41.07;17.97;;;;;;;-2.92;67.16;99932.13;125126;1102;104360;-79
2021/12/24 05:58:38;;;;;;;49.00;20.07;;;;;;;-2.90;67.24;99935.73;125010;1102;104332;-81
2021/12/24 06:01:08;;;;;;;43.77;19.13;;;;;;;-2.86;66.79;99933.41;125002;1102;104262;-80
2021/12/24 06:03:44;;;;;;;37.77;17.20;;;;;;;-2.83;67.54;99913.11;125027;1102;104219;-81
2021/12/24 06:06:12;;;;;;;38.33;18.77;;;;;;;-2.81;67.60;99914.12;124979;1103;104223;-81
2021/12/24 06:08:41;;;;;;;39.20;18.03;;;;;;;-2.79;67.19;99915.13;125021;1099;104178;-80
2021/12/24 06:11:12;;;;;;;38.47;18.57;;;;;;;-2.78;66.94;99901.52;125059;1099;104188;-81
2021/12/24 06:13:41;;;;;;;41.00;19.47;;;;;;;-2.78;67.79;99891.25;125106;1102;104226;-80
2021/12/24 06:16:11;;;;;;;45.00;20.70;;;;;;;-2.77;67.11;99891.38;125050;1102;104734;-81
2021/12/24 06:18:45;;;;;;;43.40;20.20;;;;;;;-2.76;67.87;99885.48;124939;1102;104422;-80
2021/12/24 06:21:15;;;;;;;44.67;21.47;;;;;;;-2.74;67.61;99868.50;125037;1102;104782;-78
2021/12/24 06:23:46;;;;;;;39.67;19.60;;;;;;;-2.71;67.62;99865.29;125155;1102;104313;-77
2021/12/24 06:26:18;;;;;;;46.67;21.03;;;;;;;-2.69;67.99;99855.13;125115;1100;104402;-78
2021/12/24 06:28:48;;;;;;;45.43;20.13;;;;;;;-2.67;68.78;99859.59;124970;1103;104392;-79
2021/12/24 06:31:16;;;;;;;44.20;20.63;;;;;;;-2.66;67.80;99863.96;125015;1102;104325;-78
2021/12/24 06:33:45;;;;;;;41.53;20.37;;;;;;;-2.66;67.80;99858.83;125225;1102;104791;-79
2021/12/24 06:36:14;;;;;;;41.05;18.00;;;;;;;-2.64;68.41;99853.81;126130;1099;104296;-78
2021/12/24 06:38:43;;;;;;;43.43;20.80;;;;;;;-2.64;67.86;99852.12;125934;1099;104338;-78
2021/12/24 06:41:14;;;;;;;41.63;19.73;;;;;;;-2.63;68.80;99851.36;125807;1099;104318;-77
2021/12/24 06:43:45;;;;;;;39.90;19.53;;;;;;;-2.62;67.50;99850.56;125761;1099;104153;-79
2021/12/24 06:46:13;;;;;;;39.97;19.73;;;;;;;-2.61;67.74;99842.09;125907;1099;104169;-79
2021/12/24 06:48:45;;;;;;;42.80;20.00;;;;;;;-2.60;67.78;99838.75;125930;1099;104217;-79
2021/12/24 06:51:15;;;;;;;43.90;20.10;;;;;;;-2.56;67.73;99837.30;125851;1098;104204;-78
2021/12/24 06:53:44;;;;;;;39.43;19.93;;;;;;;-2.54;68.65;99839.23;125147;1099;104140;-79
2021/12/24 06:56:14;;;;;;;41.07;20.33;;;;;;;-2.50;67.55;99831.75;125171;1102;104223;-79
2021/12/24 06:58:47;;;;;;;40.83;19.10;;;;;;;-2.46;68.30;99826.05;125177;1099;104214;-80
2021/12/24 07:01:20;;;;;;;41.93;19.27;;;;;;;-2.43;68.06;99816.01;125197;1102;104303;-79
2021/12/24 07:03:54;;;;;;;42.77;20.73;;;;;;;-2.40;68.35;99813.67;125716;1099;104157;-80
2021/12/24 07:06:28;;;;;;;40.80;19.87;;;;;;;-2.38;68.17;99815.59;125873;1099;104144;-80
2021/12/24 07:09:01;;;;;;;43.30;21.13;;;;;;;-2.36;67.12;99806.31;125817;1099;104184;-79
2021/12/24 07:11:30;;;;;;;43.10;21.37;;;;;;;-2.32;68.42;99807.46;125394;1099;104233;-79
2021/12/24 07:14:04;;;;;;;44.60;20.90;;;;;;;-2.29;68.33;99799.98;126011;1099;104226;-80
2021/12/24 07:16:37;;;;;;;46.47;21.97;;;;;;;-2.26;67.94;99789.02;125973;1099;104156;-80
2021/12/24 07:19:05;;;;;;;44.97;21.33;;;;;;;-2.24;68.86;99783.22;125262;1102;104659;-81
2021/12/24 07:21:38;;;;;;;46.23;22.33;;;;;;;-2.23;67.94;99772.17;125782;1099;104204;-80
2021/12/24 07:24:09;;;;;;;47.67;23.27;;;;;;;-2.20;68.39;99769.83;125872;1099;104162;-80
2021/12/24 07:26:38;;;;;;;43.77;21.87;;;;;;;-2.18;68.98;99767.38;125958;1099;104140;-81
2021/12/24 07:29:09;;;;;;;44.50;21.13;;;;;;;-2.16;69.00;99765.80;125871;1099;104166;-80
2021/12/24 07:31:42;;;;;;;45.13;21.80;;;;;;;-2.17;68.76;99754.63;125853;1099;104131;-81
2021/12/24 07:34:10;;;;;;;42.00;20.33;;;;;;;-2.15;68.30;99746.12;125659;1099;104756;-79
2021/12/24 07:36:40;;;;;;;45.87;20.77;;;;;;;-2.15;69.56;99752.17;125875;1099;104217;-78
2021/12/24 07:39:13;;;;;;;44.53;20.70;;;;;;;-2.18;68.91;99747.69;125869;1099;101676;-80
2021/12/24 07:41:43;;;;;;;46.03;21.77;;;;;;;-2.14;68.70;99745.34;126045;1099;104140;-80
2021/12/24 07:44:16;;;;;;;43.73;20.50;;;;;;;-2.12;68.39;99748.91;125952;1099;104198;-81
2021/12/24 07:46:53;;;;;;;42.67;21.82;;;;;;;-2.11;68.40;99748.14;125924;1099;104632;-81
2021/12/24 07:49:40;;;;;;;48.33;22.60;;;;;;;-2.07;68.60;99747.56;125940;1099;104181;-80
2021/12/24 07:52:20;;;;;;;48.50;23.80;;;;;;;-2.06;69.38;99746.80;126008;1099;104152;-82
2021/12/24 07:54:55;;;;;;;47.10;22.90;;;;;;;-2.02;68.58;99738.54;126015;1099;104232;-82
2021/12/24 07:57:28;;;;;;;45.25;22.95;;;;;;;-2.01;70.12;99725.80;125923;1099;104188;-78
2021/12/24 08:00:02;;;;;;;45.97;22.70;;;;;;;-1.99;69.20;99728.48;125786;1099;103986;-80
2021/12/24 08:02:40;;;;;;;47.03;22.40;;;;;;;-2.08;69.96;99709.81;125877;1099;104152;-80
2021/12/24 08:05:10;;;;;;;45.27;22.40;;;;;;;-1.94;68.86;99721.98;125973;1099;104162;-81
2021/12/24 08:07:48;;;;;;;48.53;24.40;;;;;;;-1.90;69.92;99708.58;125956;1099;104204;-82
2021/12/24 08:10:23;;;;;;;47.67;22.93;;;;;;;-1.88;70.76;99694.14;126044;1099;104153;-82
2021/12/24 08:12:55;;;;;;;47.67;23.37;;;;;;;-1.84;70.34;99698.73;125842;1099;104188;-79
2021/12/24 08:15:27;;;;;;;49.37;23.97;;;;;;;-1.77;69.25;99697.48;126000;1099;104174;-80
2021/12/24 08:17:59;;;;;;;44.63;23.90;;;;;;;-1.71;69.57;99694.47;126031;1099;102299;-81
2021/12/24 08:20:41;;;;;;;44.63;22.00;;;;;;;-1.65;70.41;99676.89;125957;1099;104185;-83
2021/12/24 08:23:15;;;;;;;47.27;23.57;;;;;;;-1.59;70.02;99679.91;125987;1099;104626;-82
2021/12/24 08:25:58;;;;;;;;;;;;;;;;;;;;;
2021/12/24 08:28:36;;;;;;;48.00;25.17;;;;;;;-1.41;69.41;99663.95;125339;1099;104213;-82
2021/12/24 08:31:15;;;;;;;50.37;25.23;;;;;;;-1.32;69.62;99662.91;125215;1102;104252;-84
2021/12/24 08:33:59;;;;;;;47.53;23.57;;;;;;;-1.27;70.54;99652.92;125944;1099;104230;-83
2021/12/24 08:36:42;;;;;;;48.33;24.43;;;;;;;-1.20;69.42;99637.13;125390;1099;104220;-81
2021/12/24 08:39:16;;;;;;;49.63;25.50;;;;;;;-1.12;69.76;99630.81;126140;1099;104194;-82
2021/12/24 08:42:31;;;;;;;;;;;;;;;;;;;;;
2021/12/24 08:45:31;;;;;;;49.90;24.80;;;;;;;-0.98;69.99;99611.14;126044;1099;111629;-84
2021/12/24 08:48:01;;;;;;;49.33;25.30;;;;;;;-0.92;70.79;99606.41;126040;1099;104239;-83
2021/12/24 08:50:36;;;;;;;51.53;27.33;;;;;;;-0.84;70.09;99591.45;126048;1099;102720;-84
2021/12/24 08:53:08;;;;;;;51.37;26.60;;;;;;;-0.80;69.76;99585.70;125170;1099;104319;-84
2021/12/24 08:55:53;;;;;;;51.43;26.83;;;;;;;-0.71;70.09;99594.84;125172;1102;104306;-85
2021/12/24 08:58:46;;;;;;;51.27;26.23;;;;;;;-0.68;70.57;99585.62;125266;1102;104666;-85
2021/12/24 09:01:43;;;;;;;;;;;;;;;;;;;;;
2021/12/24 09:04:23;;;;;;;51.67;26.30;;;;;;;-0.78;70.19;99578.06;125169;1102;104153;-84
2021/12/24 09:06:54;;;;;;;49.83;27.33;;;;;;;-0.81;70.43;99571.05;125180;1102;104405;-84
2021/12/24 09:09:24;;;;;;;53.93;28.13;;;;;;;-0.80;69.81;99565.09;125186;1102;102602;-83
2021/12/24 09:12:07;;;;;;;52.57;26.53;;;;;;;-0.78;70.04;99553.22;125190;1099;104447;-83
2021/12/24 09:14:36;;;;;;;46.53;24.13;;;;;;;-0.74;70.21;99546.58;125145;1099;104159;-79
2021/12/24 09:17:10;;;;;;;48.97;25.73;;;;;;;-0.73;70.13;99533.80;125242;1102;104453;-83
2021/12/24 09:19:47;;;;;;;51.53;25.93;;;;;;;-0.73;70.42;99538.06;125220;1100;104182;-81
2021/12/24 09:22:29;;;;;;;49.73;25.67;;;;;;;-0.74;70.49;99538.84;125206;1102;104172;-82
2021/12/24 09:24:58;;;;;;;53.03;26.67;;;;;;;-0.71;70.02;99527.86;125248;1099;104262;-81
2021/12/24 09:30:29;;;;;;;47.57;22.87;;;;;;;-0.62;71.32;99511.30;126181;1099;104146;-81
2021/12/24 09:33:00;;;;;;;53.97;25.93;;;;;;;-0.59;71.18;99508.04;126003;1099;104239;-80
2021/12/24 09:35:32;;;;;;;39.05;20.57;;;;;;;-0.55;69.92;99504.84;126109;1099;102320;-82
2021/12/24 09:38:10;;;;;;;54.13;26.67;;;;;;;-0.47;70.46;99498.48;126069;1099;104371;-82
2021/12/24 09:41:14;;;;;;;47.17;23.13;;;;;;;-0.44;71.27;99502.95;126087;1099;104149;-82
2021/12/24 09:43:58;;;;;;;47.00;25.20;;;;;;;-0.40;70.87;99489.47;126103;1099;104208;-83
2021/12/24 09:46:42;;;;;;;47.30;23.67;;;;;;;-0.35;70.44;99493.22;126011;1099;104213;-80
2021/12/24 09:49:26;;;;;;;;;;;;;;;;;;;;;
2021/12/24 09:52:20;;;;;;;46.47;23.57;;;;;;;-0.28;70.52;99473.86;126030;1099;104309;-82
2021/12/24 09:54:54;;;;;;;43.20;22.20;;;;;;;-0.23;70.47;99468.20;126189;1099;104184;-84
2021/12/24 09:57:23;;;;;;;48.85;23.98;;;;;;;-0.23;70.40;99455.31;126290;1098;104191;-81
2021/12/24 09:59:53;;;;;;;48.47;23.83;;;;;;;-0.20;70.53;99462.36;126109;1099;104239;-81
2021/12/24 10:02:35;;;;;;;48.17;24.57;;;;;;;-0.14;70.63;99442.11;126274;1099;104630;-80
2021/12/24 10:05:33;;;;;;;49.42;23.75;;;;;;;-0.04;70.75;99439.27;126076;1099;104146;-82
2021/12/24 10:08:06;;;;;;;42.35;21.20;;;;;;;0.05;70.54;99427.72;126055;1099;104146;-81
2021/12/24 10:11:06;;;;;;;45.37;22.37;;;;;;;0.10;70.92;99422.05;126160;1099;104243;-80
2021/12/24 10:13:38;;;;;;;43.35;22.25;;;;;;;0.14;70.44;99417.95;126088;1099;104179;-84
2021/12/24 10:16:10;;;;;;;43.87;23.10;;;;;;;0.20;69.93;99410.58;126165;1098;104242;-82
2021/12/24 10:18:41;;;;;;;45.43;22.83;;;;;;;0.22;70.24;99409.00;125968;1099;104290;-81
2021/12/24 10:21:22;;;;;;;43.47;22.70;;;;;;;0.30;70.31;99412.91;125977;1099;104178;-85
2021/12/24 10:24:03;;;;;;;43.20;22.65;;;;;;;0.41;70.67;99407.50;125947;1099;102597;-81
2021/12/24 10:26:39;;;;;;;43.90;22.50;;;;;;;0.49;70.15;99404.55;125974;1099;104227;-83
2021/12/24 10:29:24;;;;;;;46.27;23.80;;;;;;;0.57;70.13;99406.69;125967;1099;104284;-82
2021/12/24 10:32:14;;;;;;;40.78;21.23;;;;;;;0.62;69.98;99408.72;125942;1099;104206;-83
2021/12/24 10:34:58;;;;;;;42.30;21.43;;;;;;;0.70;70.31;99391.99;126083;1099;104708;-83
2021/12/24 10:37:33;;;;;;;45.70;22.73;;;;;;;0.78;70.11;99391.52;126092;1099;104181;-82
2021/12/24 10:40:08;;;;;;;43.33;22.63;;;;;;;0.85;69.65;99380.74;125794;1099;104220;-82
2021/12/24 10:42:43;;;;;;;43.87;23.37;;;;;;;0.94;69.84;99375.22;125986;1099;102478;-83
2021/12/24 10:48:58;;;;;;;;;;;;;;;;;;;;;
2021/12/24 10:52:16;;;;;;;40.93;20.57;;;;;;;1.02;70.09;99348.98;125692;1099;104194;-84
2021/12/24 10:55:11;;;;;;;40.83;21.07;;;;;;;1.06;70.12;99338.02;125931;1099;104179;-83
2021/12/24 10:58:06;;;;;;;43.60;21.87;;;;;;;1.14;69.90;99346.19;125869;1099;104146;-84
2021/12/24 11:00:42;;;;;;;38.40;19.80;;;;;;;1.18;69.19;99335.20;125123;1102;104185;-82
2021/12/24 11:03:19;;;;;;;40.00;21.57;;;;;;;1.26;69.90;99340.78;125110;1102;104204;-84
2021/12/24 11:05:50;;;;;;;41.40;22.27;;;;;;;1.38;69.91;99331.10;125044;1102;104354;-84
2021/12/24 11:08:49;;;;;;;42.57;21.93;;;;;;;1.51;69.77;99326.58;124999;1099;104168;-85
2021/12/24 11:11:47;;;;;;;40.30;21.20;;;;;;;1.62;69.87;99320.27;125048;1099;104576;-84
2021/12/24 11:14:32;;;;;;;45.07;23.27;;;;;;;1.72;69.96;99308.73;125037;1100;104281;-85
2021/12/24 11:17:47;;;;;;;44.17;23.07;;;;;;;1.90;69.96;99299.33;125061;1102;104214;-83
2021/12/24 11:20:55;;;;;;;43.80;23.40;;;;;;;1.95;69.46;99287.50;124931;1102;104197;-83
2021/12/24 11:23:56;;;;;;;43.97;22.63;;;;;;;1.96;70.37;99281.53;125068;1103;104220;-82
2021/12/24 11:27:10;;;;;;;40.47;22.10;;;;;;;1.96;69.22;99288.38;125113;1102;105658;-82
2021/12/24 11:30:01;;;;;;;47.77;23.93;;;;;;;2.00;69.42;99277.39;125085;1102;111891;-84
2021/12/24 11:33:14;;;;;;;;;;;;;;;;;;;;;
2021/12/24 11:35:59;;;;;;;42.50;22.33;;;;;;;2.13;69.89;99271.98;124954;1102;104406;-84
2021/12/24 11:38:54;;;;;;;43.47;22.20;;;;;;;2.15;69.51;99262.63;125061;1098;104179;-84
2021/12/24 11:45:32;;;;;;;37.53;20.13;;;;;;;2.11;70.17;99268.45;124841;1106;104233;-85
2021/12/24 11:48:17;;;;;;;39.90;21.37;;;;;;;2.10;69.04;99274.45;124843;1105;104505;-84
2021/12/24 11:50:57;;;;;;;42.60;22.13;;;;;;;2.11;69.40;99267.58;124829;1105;104175;-83
2021/12/24 11:53:40;;;;;;;39.83;22.20;;;;;;;2.10;69.64;99266.70;124862;1106;104861;-85
2021/12/24 11:56:39;;;;;;;42.97;22.23;;;;;;;2.14;69.78;99271.19;124890;1105;104319;-85
2021/12/24 11:59:49;;;;;;;40.37;19.93;;;;;;;2.22;68.83;99262.92;124812;1105;104198;-85
2021/12/24 12:03:11;;;;;;;39.00;20.37;;;;;;;2.24;68.94;99256.11;124838;1102;104169;-84
2021/12/24 12:05:47;;;;;;;39.67;19.30;;;;;;;2.25;69.26;99250.13;124899;1105;104299;-82
2021/12/24 12:08:41;;;;;;;41.17;22.87;;;;;;;2.24;69.31;99245.76;124881;1105;104492;-82
2021/12/24 12:11:27;;;;;;;37.10;19.27;;;;;;;2.27;68.57;99239.02;124843;1105;104210;-83
2021/12/24 12:14:05;;;;;;;42.45;22.17;;;;;;;2.23;68.98;99241.38;124889;1102;104194;-82
2021/12/24 12:16:52;;;;;;;42.47;21.67;;;;;;;2.22;69.35;99242.22;125546;1099;104341;-83
2021/12/24 12:19:26;;;;;;;43.57;21.57;;;;;;;2.18;68.82;99235.98;125892;1099;104422;-82
2021/12/24 12:22:15;;;;;;;46.33;22.27;;;;;;;2.11;69.35;99227.05;125986;1099;104188;-83
2021/12/24 12:27:34;;;;;;;;;;;;;;;2.02;68.81;99215.36;125874;1099;104304;-82
2021/12/24 12:30:34;;;;;;;43.93;22.37;;;;;;;2.01;69.27;99223.92;126088;1099;102017;-82
2021/12/24 12:33:10;;;;;;;42.33;22.83;;;;;;;2.01;69.37;99227.42;125885;1099;104310;-81
2021/12/24 12:35:43;;;;;;;43.90;21.60;;;;;;;1.99;69.37;99239.37;126135;1099;104268;-82
2021/12/24 12:38:39;;;;;;;49.10;25.50;;;;;;;1.98;69.17;99229.86;125891;1098;104188;-81
2021/12/24 12:41:31;;;;;;;45.75;23.80;;;;;;;1.95;69.25;99240.06;126086;1099;103293;-80
2021/12/24 12:44:15;;;;;;;46.27;23.40;;;;;;;1.94;69.21;99240.86;126158;1099;102347;-81
2021/12/24 12:46:50;;;;;;;42.57;22.33;;;;;;;1.96;69.12;99249.57;126075;1098;104149;-83
2021/12/24 12:49:32;;;;;;;46.60;23.20;;;;;;;2.01;69.48;99245.53;126190;1099;104224;-82
2021/12/24 12:52:07;;;;;;;44.80;22.53;;;;;;;2.04;69.88;99237.02;126079;1099;104156;-81
2021/12/24 12:54:41;;;;;;;45.20;23.97;;;;;;;2.04;69.29;99245.69;126239;1099;104229;-81
2021/12/24 12:57:20;;;;;;;45.37;23.03;;;;;;;2.05;69.31;99241.39;126343;1099;104156;-80
2021/12/24 13:00:24;;;;;;;45.60;22.90;;;;;;;2.06;69.31;99245.77;126235;1099;103016;-79
2021/12/24 13:03:14;;;;;;;45.67;23.60;;;;;;;2.04;68.92;99243.10;126034;1099;104162;-80
2021/12/24 13:06:17;;;;;;;41.40;21.17;;;;;;;2.02;69.14;99238.65;126211;1099;104188;-82
2021/12/24 13:08:50;;;;;;;40.07;20.87;;;;;;;2.05;69.47;99241.39;126265;1099;104229;-80
2021/12/24 13:11:37;;;;;;;45.57;23.33;;;;;;;2.04;69.70;99249.95;126254;1099;104160;-80
2021/12/24 13:14:27;;;;;;;45.23;24.17;;;;;;;2.03;68.80;99246.49;126160;1099;104157;-81
2021/12/24 13:17:20;;;;;;;46.27;22.87;;;;;;;2.04;68.89;99247.37;125875;1099;104265;-82
2021/12/24 13:20:14;;;;;;;46.47;23.20;;;;;;;1.98;69.17;99248.85;125962;1098;104274;-81
2021/12/24 13:22:49;;;;;;;43.97;22.57;;;;;;;1.95;68.94;99251.28;125174;1099;112073;-82
2021/12/24 13:25:28;;;;;;;45.60;23.47;;;;;;;1.90;69.37;99259.61;125931;1099;104156;-82
2021/12/24 13:28:00;;;;;;;45.47;23.07;;;;;;;1.83;68.97;99250.67;125955;1099;104185;-81